Kenora, Canada
Current Conditions -  °F | °C
As of 6:00 AM on Saturday 20 Dec 2014 (Local Time) from CYQK Reporting Station
Haze Haze  
Wind Chill: 15°   Ceiling: 200
Heat Index: 23°   Visibility: 0.62mi
Dew Point: 23°   Wind: 7mph
Humidity: 100%   Direction: 150°SSE
Pressure: 30.01"   Gusts: NA
Location:  49.77°N, 94.46°W
Report Text: CYQK 201200Z 15006KT 5/8SM BR VV002 M05/M05 A3001 RMK FG8 SLP189
Loading
Personal Weather Stations






























Interactive Weather Map New forecast layout! Learn more

10-Day Weather Forecast

Advertisements
Track Severe Weather on mobile